Terminal Aerodrome Forecast
Issued by NWS

Home | Current Version | Previous Version | Graphics & Text | Print | Product List | Glossary On
Versions: 1 2 3 4 5 6 7 8 9 10 11 12 13 14 15 16 17 18
000
FTUS43 KICT 131731 AAA
TAFSLN
TAF AMD
KSLN 131731Z 1318/1418 15010KT P6SM SCT025 BKN050
      TEMPO 1318/1322 BKN025
     FM132200 14007KT P6SM BKN120
     FM140900 17008KT P6SM BKN020
     FM141500 18010KT P6SM BKN045=

USA.gov is the U.S. government's official web portal to all federal, state and local government web resources and services.